Aeroporto :
LOGIN :

Iscrizione | Disclaimer

   EN    FR    IT 

 










Sommario :    VFR   VFR Marginale   IFR   IFR Intensivo   IFR Molto Intensivo
Visibilità : 
Base nubi : 
>= 8 km
>= 3000ft
5 / 8 km
1000 / 3000 ft
1500m / 5 km
500 / 1000 ft
800 / 1500m
200 / 500 ft
< 800m
< 200 ft
Simboli :   Temporali  Nebbia  Neve Forte  Precipitazioni Forti  Vento > 20 kt
SIGMETs :   Varie  Temporali  Ghiacco  Turbolenza  Onda orograficha  Ceneri Vulcaniche







- Altitudine del aeroporto : 1090 ft
- Codice IATA : CFE
- Carte del aeroporto


LFLC - Clermont-Ferrand Auvergne

ULTIMO METAR :
  • 210300Z AUTO 18015KT CAVOK 19/10 Q1014 NOSIG

METARs OBSOLETI :
  • 210230Z AUTO 18015KT CAVOK 19/10 Q1015 NOSIG
  • 210200Z AUTO 20007KT 140V250 CAVOK 18/10 Q1015 NOSIG
  • 210130Z AUTO VRB03KT CAVOK 18/10 Q1015 NOSIG
  • 210100Z AUTO 22009KT 190V250 CAVOK 19/10 Q1015 NOSIG
  • 210030Z AUTO 20012KT CAVOK 19/10 Q1015 NOSIG

TAF TAF LFLC
Valido dal 21 a 03 ore il 22 a 03 ore UTC


210200Z 2103/2203 18009KT CAVOK
BECMG 2106/2108 27009KT
BECMG 2112/2115 BKN040
PROB40
TEMPO 2112/2119 VRB15G25KT 4000 RA SCT025
BECMG 2118/2120 VRB02KT CAVOK
PROB40 2200/2203 4000 BR BKN010
ATIS : +33 4 73 62 74 38
Nessun NOTAM noto per questo aeroporto.



MetMap, La meteo Aeronautica in un colpo d'occhio ! - Copyright ORBIFLY Dicembre 2007 - Disclaimer

ORBIFLY MET'MAP TEAM :

Programmazione e sviluppo : Alexandra Zaïnal
Concezione e sviluppo : Baudouin d'Aumeries
Co-Programmazione e sviluppo : Marc-Olivier Méhu
Supporto tecnico e logistico : Manuel Goepfert
Aiuto per la traduzione : Arnaldo La Scala

Contatto : metmap@orbifly.com




FONTI E CREDITI :

   NOAA